Terminal Aerodrome Forecast
Issued by NWS Blacksburg, VA

Home | Current Version | Previous Version | Text Only | Print | Product List | Glossary On
Versions: 1 2 3 4 5 6 7 8 9 10 11 12 13 14 15 16 17 18 19 20 21 22 23 24 25 26 27 28 29 30 31 32 33 34 35 36 37 38 39 40 41 42 43 44 45 46 47
000
FTUS41 KRNK 052135 AAA
TAFROA
TAF AMD
KROA 052135Z 0522/0618 00000KT 5SM BR SCT015 OVC030
      TEMPO 0522/0523 3SM -SN OVC015
     FM052300 33007KT P6SM OVC020
     FM060600 33006KT P6SM SCT030=

USA.gov is the U.S. government's official web portal to all federal, state and local government web resources and services.